KILM/ILM METAR and TAF weather

Enter ICAO airport designator
Station Type Date Time Source
KILM METAR 2022/05/24 11:53 UTC NOAA

KILM 241153Z 17005KT 10SM CLR 26/23 A3008 RMK AO2 SLP186 T02560228 10256 20239 53008


Station Type Date Time Source
KILM Decoded METAR 2022/05/24 11:53 UTC NOAA

WILMINGTON INT'L AIRPORT, NC, United States (KILM) 34-16N 077-54W 9M
May 24, 2022 - 07:53 AM EDT / 2022.05.24 1153 UTC
Wind: from the S (170 degrees) at 6 MPH (5 KT):0
Visibility: 10 mile(s):0
Sky conditions: clear
Temperature: 78.1 F (25.6 C)
Dew Point: 73.0 F (22.8 C)
Relative Humidity: 84%
Pressure (altimeter): 30.08 in. Hg (1018 hPa)
Pressure tendency: 0.02 inches (0.8 hPa) higher than three hours ago
ob: KILM 241153Z 17005KT 10SM CLR 26/23 A3008 RMK AO2 SLP186 T02560228 10256 20239 53008
cycle: 12

Station Type Date Time Source
KILM TAF 2022/05/24 12:22 UTC NOAA

TAF KILM 241120Z 2412/2512 18006KT P6SM SCT035 BKN120
FM241700 21010KT P6SM VCSH SCT040
TEMPO 2418/2422 4SM TSRA BKN040CB
FM250000 25005KT P6SM BKN120
FM250300 33004KT P6SM BKN020
FM250600 36005KT P6SM OVC010

Example: see airport list